Time;durP1;ratioP1;P1;durP2;ratioP2;P2;SDS_P1;SDS_P2;PMS_P1;PMS_P2;Temp;Humidity;BMP_temperature;BMP_pressure;BME280_temperature;BME280_humidity;BME280_pressure;Samples;Min_cycle;Max_cycle;Signal;HPM_P1;HPM_P2
2022/04/20 00:01:22;;;;;;;19.23;11.00;;;;;;;12.01;69.01;99925.91;4977397;28;20126;-84
2022/04/20 00:03:48;;;;;;;18.77;11.68;;;;;;;11.92;69.15;99924.34;4976655;28;20074;-83
2022/04/20 00:06:14;;;;;;;20.17;11.13;;;;;;;11.81;70.37;99928.31;4978103;28;20082;-84
2022/04/20 00:08:41;;;;;;;15.93;10.38;;;;;;;11.94;69.86;99935.59;4977622;28;20418;-82
2022/04/20 00:11:08;;;;;;;19.48;10.13;;;;;;;11.68;71.58;99925.44;4977679;28;20481;-84
2022/04/20 00:13:35;;;;;;;17.05;10.27;;;;;;;11.62;72.64;99935.97;4977158;28;20030;-83
2022/04/20 00:16:02;;;;;;;17.38;9.30;;;;;;;11.57;73.13;99928.53;4977335;28;20042;-83
2022/04/20 00:18:28;;;;;;;18.58;9.93;;;;;;;11.41;74.62;99929.53;4959772;28;20038;-85
2022/04/20 00:20:53;;;;;;;21.63;10.95;;;;;;;11.41;74.70;99936.69;4976947;28;20039;-84
2022/04/20 00:23:19;;;;;;;17.52;9.77;;;;;;;11.34;75.53;99935.75;4977179;28;20031;-84
2022/04/20 00:25:45;;;;;;;20.15;10.57;;;;;;;11.25;75.98;99944.81;4991977;28;20046;-83
2022/04/20 00:28:10;;;;;;;16.52;10.93;;;;;;;11.21;77.10;99932.91;4976923;28;20038;-85
2022/04/20 00:30:36;;;;;;;15.35;10.23;;;;;;;11.19;77.51;99940.22;4976005;28;20042;-84
2022/04/20 00:33:02;;;;;;;16.15;10.48;;;;;;;11.24;77.63;99948.44;4977215;28;20051;-84
2022/04/20 00:35:29;;;;;;;19.17;11.00;;;;;;;11.04;79.04;99942.00;4975586;28;20034;-84
2022/04/20 00:37:54;;;;;;;19.73;11.43;;;;;;;11.14;78.98;99953.19;4976913;28;20085;-83
2022/04/20 00:40:20;;;;;;;18.60;11.18;;;;;;;11.06;79.77;99942.66;4976234;28;20047;-84
2022/04/20 00:42:47;;;;;;;17.30;10.88;;;;;;;11.09;80.43;99952.91;4977195;28;20039;-85
2022/04/20 00:45:14;;;;;;;23.05;11.60;;;;;;;10.97;81.49;99951.69;4976853;28;20101;-85
2022/04/20 00:47:44;;;;;;;18.27;10.02;;;;;;;10.98;82.13;99963.94;4975756;28;20136;-84
2022/04/20 00:50:14;;;;;;;20.77;9.75;;;;;;;11.12;81.34;99965.81;4975843;28;20510;-83
2022/04/20 00:52:47;;;;;;;22.48;10.13;;;;;;;11.03;81.93;99973.03;4985341;28;20105;-81
2022/04/20 00:55:13;;;;;;;23.60;10.40;;;;;;;11.01;82.60;99980.31;4993922;28;20046;-81
2022/04/20 00:57:45;;;;;;;16.30;10.40;;;;;;;11.03;82.52;99972.19;4992365;28;20023;-82
2022/04/20 01:00:16;;;;;;;20.80;10.35;;;;;;;11.09;82.37;99972.31;4994566;28;20046;-83
2022/04/20 01:02:47;;;;;;;16.55;9.50;;;;;;;11.00;83.38;99983.16;4994814;28;20041;-84
2022/04/20 01:05:19;;;;;;;15.23;9.82;;;;;;;10.87;84.55;99987.22;4993969;28;20055;-81
2022/04/20 01:08:04;;;;;;;20.42;9.88;;;;;;;10.80;85.34;99983.59;4994050;28;20046;-82
2022/04/20 01:11:15;;;;;;;20.80;10.32;;;;;;;10.92;84.95;99985.84;4990943;28;20089;-82
2022/04/20 01:14:14;;;;;;;18.13;10.43;;;;;;;10.83;85.25;99982.47;4992493;28;20043;-86
2022/04/20 01:17:03;;;;;;;16.25;10.48;;;;;;;10.89;85.65;99985.22;4972104;28;20172;-84
2022/04/20 01:19:47;;;;;;;21.40;10.73;;;;;;;10.71;86.76;99984.69;4990905;28;20045;-82
2022/04/20 01:22:23;;;;;;;20.10;10.05;;;;;;;10.87;86.04;99992.50;4987688;28;20043;-86
2022/04/20 01:25:33;;;;;;;21.60;11.00;;;;;;;10.98;86.23;99995.75;4968673;28;20055;-85
2022/04/20 01:28:41;;;;;;;19.95;10.65;;;;;;;10.94;86.76;99994.47;5057333;23;20052;-88
2022/04/20 01:31:38;;;;;;;23.02;10.93;;;;;;;10.78;89.42;99993.56;4958643;29;20043;-86
2022/04/20 01:34:38;;;;;;;21.85;11.48;;;;;;;10.66;90.71;100013.53;4935123;29;20047;-86
2022/04/20 01:37:04;;;;;;;20.98;11.35;;;;;;;10.67;91.55;100011.72;4952938;29;20052;-82
2022/04/20 01:39:30;;;;;;;20.98;12.05;;;;;;;10.58;92.29;100010.94;4957688;28;20111;-84
2022/04/20 01:42:03;;;;;;;21.67;12.75;;;;;;;10.59;93.29;100007.28;4958760;28;20028;-84
2022/04/20 01:44:46;;;;;;;21.55;12.82;;;;;;;10.47;95.56;100005.22;4923287;29;20047;-83
2022/04/20 01:47:26;;;;;;;20.48;12.55;;;;;;;10.46;96.46;100016.81;4916122;29;20044;-84
2022/04/20 01:54:14;;;;;;;33.20;14.02;;;;;;;10.52;98.85;100027.53;4978081;28;20050;-85
2022/04/20 01:57:14;;;;;;;26.90;14.15;;;;;;;10.45;100.00;100018.63;4981000;28;20417;-83
2022/04/20 02:00:02;;;;;;;25.65;13.23;;;;;;;10.36;100.00;100017.00;4998520;28;20038;-83
2022/04/20 02:03:39;;;;;;;21.17;12.50;;;;;;;10.54;100.00;100030.03;4975830;28;20023;-85
2022/04/20 02:06:50;;;;;;;23.77;13.35;;;;;;;10.38;100.00;100025.59;5048595;23;20136;-83
2022/04/20 02:09:40;;;;;;;20.40;13.18;;;;;;;10.29;100.00;100026.66;4977821;29;20051;-85
2022/04/20 02:12:35;;;;;;;23.48;12.02;;;;;;;10.40;100.00;100028.91;4985741;23;20152;-85
2022/04/20 02:16:00;;;;;;;23.05;12.77;;;;;;;10.32;100.00;100036.88;4960818;29;20023;-84
2022/04/20 02:19:23;;;;;;;26.73;13.70;;;;;;;10.28;100.00;100030.28;4967568;29;20051;-85
2022/04/20 02:25:37;;;;;;;25.58;13.85;;;;;;;10.48;99.14;100039.47;4975183;29;20039;-83
2022/04/20 02:28:37;;;;;;;24.75;14.20;;;;;;;10.51;99.66;100048.88;4959805;29;20120;-86
2022/04/20 02:31:27;;;;;;;31.55;15.07;;;;;;;10.41;100.00;100041.16;4978000;23;20067;-83
2022/04/20 02:37:09;;;;;;;28.23;14.63;;;;;;;10.45;100.00;100047.75;2602718;26;20043;-84
2022/04/20 02:39:55;;;;;;;27.17;13.82;;;;;;;10.42;100.00;100048.09;4970894;28;20046;-82
2022/04/20 02:42:58;;;;;;;26.73;14.68;;;;;;;10.53;100.00;100050.38;4972117;28;20051;-84
2022/04/20 02:45:56;;;;;;;26.17;14.20;;;;;;;10.42;100.00;100058.69;4959905;29;20129;-84
2022/04/20 02:48:34;;;;;;;28.88;14.63;;;;;;;10.54;100.00;100062.63;4977587;29;20031;-83
2022/04/20 02:58:14;;;;;;;24.25;15.57;;;;;;;10.29;100.00;100064.56;2137695;23;20039;-86
2022/04/20 03:01:25;;;;;;;36.67;14.82;;;;;;;10.55;100.00;100058.13;4910410;29;20222;-81
2022/04/20 03:04:00;;;;;;;33.40;15.30;;;;;;;10.54;100.00;100064.47;4919934;29;20052;-83
2022/04/20 03:06:30;;;;;;;31.58;15.55;;;;;;;10.64;100.00;100063.22;4901688;29;20040;-82
2022/04/20 03:09:03;;;;;;;27.33;15.02;;;;;;;10.57;100.00;100056.97;4918364;29;20113;-83
2022/04/20 03:14:25;;;;;;;31.20;15.77;;;;;;;10.53;100.00;100063.63;4936353;26;20051;-83
2022/04/20 03:17:37;;;;;;;33.70;14.60;;;;;;;10.58;100.00;100063.91;4958570;28;20493;-84
2022/04/20 03:22:48;;;;;;;34.10;14.95;;;;;;;10.64;100.00;100057.94;4883215;26;20110;-82
2022/04/20 03:25:20;;;;;;;28.50;15.13;;;;;;;10.62;100.00;100075.84;4972970;29;20023;-86
2022/04/20 03:28:20;;;;;;;32.80;15.75;;;;;;;10.63;100.00;100077.50;4976049;28;20047;-85
2022/04/20 03:34:31;;;;;;;29.15;15.38;;;;;;;10.53;100.00;100082.19;4973467;28;20067;-85
2022/04/20 03:37:15;;;;;;;37.65;15.95;;;;;;;10.50;100.00;100087.00;4969522;23;20035;-84
2022/04/20 03:39:41;;;;;;;28.10;16.30;;;;;;;10.47;100.00;100092.63;4979081;28;20032;-81
2022/04/20 03:42:26;;;;;;;40.67;17.35;;;;;;;10.50;100.00;100084.34;5025695;23;20061;-83
2022/04/20 03:45:44;;;;;;;33.33;16.27;;;;;;;10.54;100.00;100089.09;5041495;23;20043;-82
2022/04/20 03:54:21;;;;;;;43.90;16.00;;;;;;;10.68;100.00;100101.63;5027529;23;20035;-82
2022/04/20 04:08:29;;;;;;;29.90;16.13;;;;;;;10.91;100.00;100101.69;5318122;23;20047;-87
2022/04/20 04:11:27;;;;;;;45.38;17.58;;;;;;;10.67;100.00;100104.47;5085827;23;20031;-85
2022/04/20 04:13:56;;;;;;;31.67;16.52;;;;;;;10.82;100.00;100092.97;4984564;23;20047;-84
2022/04/20 04:16:59;;;;;;;38.55;17.25;;;;;;;10.66;100.00;100097.53;4968509;29;20081;-82
2022/04/20 04:19:25;;;;;;;37.03;17.00;;;;;;;10.77;100.00;100111.19;4977528;28;20187;-80
2022/04/20 04:21:54;;;;;;;40.30;17.45;;;;;;;10.72;100.00;100102.94;4960403;29;20039;-81
2022/04/20 04:24:49;;;;;;;33.13;16.83;;;;;;;10.86;100.00;100112.81;4979309;28;20026;-86
2022/04/20 04:27:20;;;;;;;43.50;16.75;;;;;;;10.99;100.00;100111.41;4969049;23;20039;-83
2022/04/20 04:33:41;;;;;;;37.88;18.90;;;;;;;10.82;100.00;100116.81;4981985;28;20058;-81
2022/04/20 04:36:19;;;;;;;48.50;18.65;;;;;;;10.94;100.00;100122.53;5020426;23;20047;-83
2022/04/20 04:39:09;;;;;;;46.95;18.45;;;;;;;10.95;100.00;100128.69;4981544;28;20059;-80
2022/04/20 04:41:38;;;;;;;35.25;17.98;;;;;;;10.98;100.00;100125.66;4980059;29;20038;-81
2022/04/20 04:44:15;;;;;;;42.97;19.08;;;;;;;10.88;100.00;100139.16;4981844;28;20023;-81
2022/04/20 04:53:38;;;;;;;47.53;20.65;;;;;;;10.91;100.00;100144.09;4939111;29;20116;-84
2022/04/20 04:56:54;;;;;;;47.53;21.17;;;;;;;10.83;100.00;100150.28;4919670;29;20048;-87
2022/04/20 04:59:52;;;;;;;43.63;21.02;;;;;;;10.74;100.00;100164.56;4921488;29;20024;-80
2022/04/20 05:02:21;;;;;;;31.10;18.70;;;;;;;10.69;100.00;100166.91;5000217;23;20064;-82
2022/04/20 05:04:47;;;;;;;40.80;19.65;;;;;;;10.80;100.00;100165.72;4971987;29;20054;-84
2022/04/20 05:07:17;;;;;;;46.40;20.20;;;;;;;10.76;100.00;100164.41;4948355;29;20064;-81
2022/04/20 05:09:47;;;;;;;39.83;18.02;;;;;;;10.75;100.00;100173.34;4960301;28;20035;-83
2022/04/20 05:12:13;;;;;;;35.92;17.35;;;;;;;10.79;100.00;100172.84;4962007;28;20394;-82
2022/04/20 05:14:44;;;;;;;32.88;16.92;;;;;;;10.83;100.00;100184.75;4943582;29;20565;-84
2022/04/20 05:17:10;;;;;;;28.75;15.15;;;;;;;10.82;100.00;100182.25;4960510;29;20027;-80
2022/04/20 05:19:36;;;;;;;35.03;14.68;;;;;;;10.96;100.00;100178.06;4945678;29;20023;-82
2022/04/20 05:22:10;;;;;;;29.48;14.82;;;;;;;10.82;100.00;100177.78;4941572;29;20046;-81
2022/04/20 05:24:38;;;;;;;27.75;14.57;;;;;;;10.76;100.00;100173.19;4944420;28;20035;-82
2022/04/20 05:27:08;;;;;;;33.22;14.55;;;;;;;10.73;100.00;100173.53;4943409;29;20135;-83
2022/04/20 05:29:50;;;;;;;32.75;14.23;;;;;;;10.76;100.00;100178.47;4943722;29;20039;-83
2022/04/20 05:32:19;;;;;;;25.50;13.50;;;;;;;10.89;100.00;100184.06;4961158;29;20046;-81
2022/04/20 05:34:45;;;;;;;30.55;13.48;;;;;;;10.78;100.00;100175.63;4943898;29;20051;-84
2022/04/20 05:42:45;;;;;;;27.10;11.93;;;;;;;10.92;100.00;100193.50;4943110;29;20039;-84
2022/04/20 05:45:11;;;;;;;20.85;9.63;;;;;;;10.86;100.00;100184.41;4963168;29;20039;-87
2022/04/20 05:47:39;;;;;;;23.95;10.27;;;;;;;10.86;100.00;100181.75;4929827;29;20047;-85
2022/04/20 05:50:07;;;;;;;29.80;11.18;;;;;;;10.82;100.00;100177.78;4943637;29;20094;-86
2022/04/20 05:52:33;;;;;;;23.55;11.13;;;;;;;10.83;100.00;100189.22;4944490;29;20046;-84
2022/04/20 05:54:59;;;;;;;24.90;10.85;;;;;;;10.99;100.00;100188.31;4942870;29;20065;-83
2022/04/20 05:57:25;;;;;;;19.65;10.45;;;;;;;10.96;100.00;100188.66;4945148;29;20553;-85
2022/04/20 05:59:51;;;;;;;24.05;10.77;;;;;;;10.93;100.00;100184.53;4945562;29;20039;-86
2022/04/20 06:02:17;;;;;;;26.30;9.85;;;;;;;11.00;100.00;100195.28;4943938;29;20043;-85
2022/04/20 06:04:43;;;;;;;20.38;10.50;;;;;;;10.92;100.00;100193.50;4946147;29;20032;-87
2022/04/20 06:07:33;;;;;;;19.15;9.57;;;;;;;11.04;100.00;100191.25;4950417;29;20494;-83
2022/04/20 06:10:22;;;;;;;21.77;9.52;;;;;;;11.11;100.00;100187.75;4943646;29;20102;-82
2022/04/20 06:12:57;;;;;;;23.17;7.85;;;;;;;11.27;100.00;100187.66;4944734;29;20043;-87
2022/04/20 06:15:33;;;;;;;16.42;7.85;;;;;;;11.39;100.00;100190.75;4963728;29;20042;-86
2022/04/20 06:18:24;;;;;;;16.30;8.38;;;;;;;11.46;100.00;100202.34;4974363;29;20043;-84
2022/04/20 06:21:20;;;;;;;;;;;;;;;11.35;100.00;100206.19;4962788;28;20098;-81
2022/04/20 06:24:24;;;;;;;15.38;8.07;;;;;;;11.29;100.00;100196.28;4921477;29;19907;-85
2022/04/20 06:27:08;;;;;;;20.98;8.23;;;;;;;11.27;100.00;100202.75;4960689;28;20062;-84
2022/04/20 06:29:42;;;;;;;14.98;7.55;;;;;;;11.31;100.00;100209.38;4963556;29;20024;-84
2022/04/20 06:32:27;;;;;;;18.08;7.95;;;;;;;11.20;100.00;100197.31;4963349;29;20036;-83
2022/04/20 06:35:20;;;;;;;17.55;8.00;;;;;;;11.37;100.00;100211.31;4976141;28;20023;-84
2022/04/20 06:38:01;;;;;;;13.47;6.33;;;;;;;11.31;100.00;100212.03;4962344;29;20134;-84
2022/04/20 06:40:45;;;;;;;21.13;7.75;;;;;;;11.37;100.00;100214.81;4979707;28;20065;-81
2022/04/20 06:43:43;;;;;;;16.50;7.30;;;;;;;11.29;100.00;100206.06;4962833;29;20035;-82
2022/04/20 06:46:29;;;;;;;24.23;8.35;;;;;;;11.37;100.00;100213.97;4963134;28;20112;-84
2022/04/20 06:49:18;;;;;;;25.05;8.27;;;;;;;11.50;100.00;100211.56;4971726;28;20066;-85
2022/04/20 07:00:16;;;;;;;30.05;7.35;;;;;;;11.58;100.00;100208.88;4962873;28;20023;-83
2022/04/20 07:03:11;;;;;;;17.38;7.75;;;;;;;11.57;100.00;100217.84;4970447;28;20116;-85
2022/04/20 07:06:02;;;;;;;15.93;7.32;;;;;;;11.62;100.00;100220.81;4963122;29;20059;-81
2022/04/20 07:08:34;;;;;;;15.95;7.40;;;;;;;11.47;100.00;100225.19;4963057;28;20037;-83
2022/04/20 07:11:09;;;;;;;22.33;8.25;;;;;;;11.52;100.00;100216.72;4978944;28;20039;-82
2022/04/20 07:13:39;;;;;;;23.77;7.68;;;;;;;11.70;100.00;100218.09;4962865;29;20027;-85
2022/04/20 07:16:05;;;;;;;14.63;7.47;;;;;;;11.75;100.00;100226.38;4962870;28;20035;-83
2022/04/20 07:18:33;;;;;;;20.48;6.80;;;;;;;11.65;100.00;100227.56;4979482;28;20023;-86
2022/04/20 07:20:59;;;;;;;22.83;8.43;;;;;;;11.62;100.00;100226.09;4962852;28;20042;-80
2022/04/20 07:24:07;;;;;;;21.13;7.53;;;;;;;11.75;100.00;100222.91;4979632;28;20031;-83
2022/04/20 07:26:58;;;;;;;18.70;7.45;;;;;;;11.64;100.00;100224.09;4962912;28;20067;-80
2022/04/20 07:29:30;;;;;;;23.30;7.13;;;;;;;11.60;100.00;100224.63;4961262;29;20047;-81
2022/04/20 07:32:22;;;;;;;17.67;5.57;;;;;;;11.73;100.00;100220.41;4972604;29;20050;-79
2022/04/20 07:35:05;;;;;;;18.85;7.97;;;;;;;11.72;100.00;100224.09;4971703;29;20043;-81
2022/04/20 07:37:59;;;;;;;16.73;7.60;;;;;;;11.83;100.00;100234.28;4967914;29;20039;-84
2022/04/20 07:40:43;;;;;;;16.58;7.15;;;;;;;11.85;100.00;100228.78;4967245;29;20115;-80
2022/04/20 07:43:29;;;;;;;17.17;6.88;;;;;;;11.73;100.00;100231.03;4955753;29;20047;-82
2022/04/20 07:46:24;;;;;;;14.63;6.88;;;;;;;11.93;100.00;100237.53;4945519;29;20063;-79
2022/04/20 07:50:18;;;;;;;15.48;7.40;;;;;;;11.98;100.00;100230.84;4969488;28;20035;-82
2022/04/20 07:52:19;;;;;;;20.75;8.00;;;;;;;11.96;100.00;100227.56;4953894;29;20047;-83
2022/04/20 07:55:13;;;;;;;25.50;7.72;;;;;;;11.98;100.00;100236.16;4960479;29;20057;-82
2022/04/20 07:58:00;;;;;;;26.27;8.25;;;;;;;12.02;100.00;100245.44;4968942;29;20104;-80
2022/04/20 08:00:45;;;;;;;24.23;7.93;;;;;;;11.99;100.00;100241.31;4983993;28;20199;-79
2022/04/20 08:03:32;;;;;;;21.20;7.72;;;;;;;11.97;100.00;100230.03;4949746;29;20074;-77
2022/04/20 08:05:59;;;;;;;21.15;9.25;;;;;;;12.08;100.00;100236.75;4968228;29;20042;-78
2022/04/20 08:08:26;;;;;;;20.15;7.57;;;;;;;12.07;100.00;100237.75;4968520;29;20435;-78
2022/04/20 08:10:56;;;;;;;24.60;8.05;;;;;;;12.13;100.00;100248.47;4966277;29;20035;-79
2022/04/20 08:16:15;;;;;;;24.88;6.45;;;;;;;11.98;100.00;100249.44;4953051;29;20039;-80
2022/04/20 08:19:01;;;;;;;20.27;7.95;;;;;;;11.92;100.00;100245.69;4956299;29;20043;-82
2022/04/20 08:21:53;;;;;;;19.63;6.70;;;;;;;12.11;100.00;100265.59;4937921;28;20478;-79
2022/04/20 08:24:22;;;;;;;22.10;7.60;;;;;;;11.90;100.00;100256.47;4968879;28;20031;-78
2022/04/20 08:26:48;;;;;;;21.23;8.23;;;;;;;11.91;100.00;100262.59;4968639;28;20062;-80
2022/04/20 08:29:13;;;;;;;21.13;7.75;;;;;;;11.91;100.00;100259.94;4953207;28;20070;-79
2022/04/20 08:31:39;;;;;;;23.80;7.90;;;;;;;12.01;100.00;100255.22;4984303;28;20062;-82
2022/04/20 08:34:08;;;;;;;29.63;8.10;;;;;;;11.96;100.00;100259.44;4966105;28;20035;-80
2022/04/20 08:36:36;;;;;;;20.25;8.00;;;;;;;12.05;100.00;100266.31;4963982;29;20039;-79
2022/04/20 08:39:02;;;;;;;17.80;7.45;;;;;;;12.26;100.00;100258.53;4965758;29;20035;-78
2022/04/20 08:41:28;;;;;;;20.23;6.90;;;;;;;12.25;100.00;100262.19;4964519;29;20039;-79
2022/04/20 08:43:57;;;;;;;23.08;7.47;;;;;;;12.40;100.00;100255.06;4963540;29;20043;-80
2022/04/20 08:46:29;;;;;;;27.55;8.85;;;;;;;12.28;100.00;100256.50;4962991;29;20043;-80
2022/04/20 08:48:55;;;;;;;33.08;8.55;;;;;;;12.35;100.00;100252.13;4963461;29;20031;-79
2022/04/20 08:51:22;;;;;;;22.10;8.23;;;;;;;12.23;100.00;100253.56;4957534;29;20028;-82
2022/04/20 08:53:50;;;;;;;30.95;9.07;;;;;;;12.33;100.00;100260.25;4945486;29;20050;-86
2022/04/20 08:59:03;;;;;;;26.58;9.25;;;;;;;12.20;100.00;100264.53;4960871;29;20045;-80
2022/04/20 09:01:31;;;;;;;27.85;8.98;;;;;;;12.39;100.00;100269.38;4963299;28;20051;-84
2022/04/20 09:04:26;;;;;;;29.52;8.18;;;;;;;12.54;100.00;100277.34;4943259;29;20047;-80
2022/04/20 09:07:16;;;;;;;24.50;8.63;;;;;;;12.39;100.00;100270.16;4945638;29;20105;-78
2022/04/20 09:09:41;;;;;;;38.33;9.35;;;;;;;12.47;100.00;100271.94;4961222;29;20034;-84
2022/04/20 09:12:17;;;;;;;30.08;8.63;;;;;;;12.41;100.00;100267.34;4943797;29;20039;-79
2022/04/20 09:14:45;;;;;;;25.35;8.43;;;;;;;12.57;100.00;100272.50;4964081;29;20067;-81
2022/04/20 09:17:12;;;;;;;22.48;8.25;;;;;;;12.68;100.00;100273.91;4943645;29;20031;-81
2022/04/20 09:19:39;;;;;;;23.52;8.40;;;;;;;12.67;100.00;100267.75;4962644;29;20039;-83
2022/04/20 09:22:27;;;;;;;22.58;8.05;;;;;;;12.86;100.00;100267.22;4951759;29;20039;-79
2022/04/20 09:25:11;;;;;;;28.52;9.35;;;;;;;12.74;100.00;100266.03;4927726;29;20058;-81
2022/04/20 09:27:41;;;;;;;24.30;9.13;;;;;;;12.90;100.00;100273.81;4943307;29;20044;-81
2022/04/20 09:30:15;;;;;;;22.08;8.80;;;;;;;12.91;99.85;100267.50;4941801;29;20132;-78
2022/04/20 09:32:45;;;;;;;31.13;8.68;;;;;;;13.01;100.00;100263.75;4941511;29;20086;-83
2022/04/20 09:35:14;;;;;;;33.47;8.27;;;;;;;13.21;98.58;100265.69;4939463;29;20046;-81
2022/04/20 09:37:42;;;;;;;24.23;8.35;;;;;;;13.22;97.41;100277.16;4976106;28;20458;-81
2022/04/20 09:40:33;;;;;;;24.67;7.80;;;;;;;13.54;96.22;100260.78;4938167;28;20046;-80
2022/04/20 09:43:06;;;;;;;22.38;7.85;;;;;;;13.50;96.25;100261.31;4977306;28;20034;-83
2022/04/20 09:45:33;;;;;;;;;;;;;;;13.78;94.70;100260.44;4977781;28;20043;-81
2022/04/20 09:51:13;;;;;;;26.50;8.68;;;;;;;13.68;95.37;100262.56;4974916;28;20497;-83
2022/04/20 09:53:41;;;;;;;28.13;8.47;;;;;;;13.75;94.04;100263.47;4939745;28;20075;-80
2022/04/20 09:56:27;;;;;;;21.17;8.35;;;;;;;13.49;95.01;100260.47;4959308;28;20043;-82
2022/04/20 09:59:03;;;;;;;24.70;7.70;;;;;;;13.83;93.01;100244.69;4958624;29;20122;-84
2022/04/20 10:01:35;;;;;;;25.08;7.93;;;;;;;13.90;92.67;100256.25;4958300;29;20498;-80
2022/04/20 10:04:02;;;;;;;20.38;7.60;;;;;;;14.05;92.71;100258.84;4957431;29;20027;-80
2022/04/20 10:06:29;;;;;;;22.20;6.50;;;;;;;14.12;91.37;100258.91;4954847;29;20678;-80
2022/04/20 10:08:55;;;;;;;25.98;6.47;;;;;;;14.26;91.16;100244.66;4957539;29;20438;-80
2022/04/20 10:11:22;;;;;;;30.80;6.95;;;;;;;14.04;91.83;100251.88;4956275;28;20491;-80
2022/04/20 10:16:39;;;;;;;18.63;6.55;;;;;;;13.96;92.58;100251.97;4936880;29;20072;-84
2022/04/20 10:19:12;;;;;;;19.17;6.95;;;;;;;13.94;93.45;100241.53;4935611;29;20046;-85
2022/04/20 10:21:53;;;;;;;23.40;7.22;;;;;;;13.89;94.72;100238.59;4936481;29;20492;-78
2022/04/20 10:24:24;;;;;;;17.98;7.40;;;;;;;13.93;92.73;100241.72;4936644;29;20055;-79
2022/04/20 10:26:51;;;;;;;27.40;7.55;;;;;;;13.96;93.05;100226.16;4936582;29;20490;-83
2022/04/20 10:29:46;;;;;;;24.27;6.53;;;;;;;13.94;92.50;100236.19;4937529;29;20036;-81
2022/04/20 10:32:22;;;;;;;15.25;5.78;;;;;;;13.85;93.38;100237.31;4943674;29;20592;-81
2022/04/20 10:34:50;;;;;;;24.75;6.88;;;;;;;13.84;93.44;100230.38;4952898;29;20087;-81
2022/04/20 10:37:28;;;;;;;21.08;6.55;;;;;;;13.84;93.49;100225.03;4938704;29;20486;-77
2022/04/20 10:40:15;;;;;;;19.42;6.10;;;;;;;13.97;91.84;100227.00;4938607;29;20042;-80
2022/04/20 10:43:20;;;;;;;17.83;6.22;;;;;;;14.02;93.05;100237.88;4941119;29;20047;-80
2022/04/20 10:46:17;;;;;;;21.60;6.72;;;;;;;14.05;93.18;100231.38;4959387;29;20039;-84
2022/04/20 10:49:15;;;;;;;19.00;6.45;;;;;;;14.08;92.14;100231.00;4955608;29;20083;-86
2022/04/20 10:51:45;;;;;;;23.98;7.15;;;;;;;14.08;92.54;100236.31;4961564;28;20041;-89
2022/04/20 10:54:17;;;;;;;22.15;6.55;;;;;;;14.08;91.98;100236.31;4944830;29;20525;-84
2022/04/20 10:57:09;;;;;;;23.55;6.65;;;;;;;14.05;92.12;100228.72;4944343;29;20039;-83
2022/04/20 10:59:41;;;;;;;15.93;6.97;;;;;;;14.30;90.86;100229.94;4943646;29;20043;-83
2022/04/20 11:02:12;;;;;;;11.52;4.57;;;;;;;14.26;90.63;100223.34;4946205;29;20043;-83
2022/04/20 11:04:51;;;;;;;19.92;6.20;;;;;;;14.43;89.55;100228.22;4957837;29;20027;-82
2022/04/20 11:10:05;;;;;;;16.33;6.97;;;;;;;14.42;89.06;100223.09;4493668;26;20047;-83
2022/04/20 11:18:39;;;;;;;14.73;6.00;;;;;;;14.34;87.76;100216.06;4954953;29;20043;-82
2022/04/20 11:21:29;;;;;;;17.05;6.28;;;;;;;14.48;88.39;100199.13;4954919;29;20047;-84
2022/04/20 11:23:59;;;;;;;22.23;6.85;;;;;;;14.63;87.11;100199.03;4971014;28;20054;-86
2022/04/20 11:26:40;;;;;;;18.70;6.38;;;;;;;14.62;87.00;100197.38;4978560;28;20039;-82
2022/04/20 11:29:22;;;;;;;19.30;6.18;;;;;;;14.81;86.27;100202.03;4980314;28;20043;-82
2022/04/20 11:32:12;;;;;;;17.15;6.65;;;;;;;14.86;85.69;100190.75;4974593;29;20047;-83
2022/04/20 11:35:14;;;;;;;17.80;6.65;;;;;;;14.96;84.69;100200.03;4994209;28;20049;-88
2022/04/20 11:37:40;;;;;;;21.13;6.72;;;;;;;14.83;86.52;100205.31;4981097;28;20120;-82
2022/04/20 11:40:22;;;;;;;19.15;6.18;;;;;;;14.70;87.14;100204.41;4983638;28;20035;-85
2022/04/20 11:43:13;;;;;;;19.60;7.20;;;;;;;14.66;86.33;100198.63;4961345;29;20059;-81
2022/04/20 11:45:40;;;;;;;20.33;6.28;;;;;;;14.84;85.20;100217.63;4951949;29;20059;-83
2022/04/20 11:48:16;;;;;;;20.30;7.00;;;;;;;14.72;84.53;100203.19;4989205;23;20074;-84
2022/04/20 11:50:56;;;;;;;23.23;7.30;;;;;;;14.68;86.02;100201.91;4981865;28;20039;-84
2022/04/20 11:53:49;;;;;;;23.38;7.15;;;;;;;14.71;85.92;100198.06;4985270;28;20034;-85
2022/04/20 11:56:17;;;;;;;17.92;6.65;;;;;;;14.73;86.84;100193.34;4982151;28;20072;-84
2022/04/20 11:58:49;;;;;;;17.60;7.40;;;;;;;14.73;85.13;100188.81;4986097;28;20038;-84
2022/04/20 12:01:16;;;;;;;27.98;6.85;;;;;;;14.96;85.14;100189.34;4985871;28;20038;-84
2022/04/20 12:03:43;;;;;;;17.17;6.18;;;;;;;14.96;84.28;100178.69;4983265;28;20039;-84
2022/04/20 12:06:11;;;;;;;18.42;6.85;;;;;;;15.01;84.87;100165.56;4987471;28;20065;-82
2022/04/20 12:08:40;;;;;;;11.45;5.90;;;;;;;15.36;83.65;100173.47;4984049;28;20155;-85
2022/04/20 12:11:08;;;;;;;20.65;7.10;;;;;;;15.34;81.34;100159.53;4983983;28;20034;-87
2022/04/20 12:13:41;;;;;;;18.45;6.43;;;;;;;15.30;79.68;100169.78;4984241;28;20545;-84
2022/04/20 12:16:09;;;;;;;21.60;6.20;;;;;;;15.26;79.86;100162.38;4990909;28;20035;-84
2022/04/20 12:18:46;;;;;;;16.63;6.65;;;;;;;15.31;80.26;100162.59;5002180;28;20026;-85
2022/04/20 12:21:41;;;;;;;14.45;5.93;;;;;;;15.44;80.68;100160.75;4989445;28;20047;-85
2022/04/20 12:24:08;;;;;;;15.75;6.07;;;;;;;15.44;79.22;100160.75;4987268;28;20043;-84
2022/04/20 12:26:34;;;;;;;20.40;6.43;;;;;;;15.39;79.67;100160.56;4985869;28;20042;-85
2022/04/20 12:29:05;;;;;;;14.75;6.47;;;;;;;15.44;80.02;100173.31;4984937;28;20030;-83
2022/04/20 12:31:31;;;;;;;22.05;5.68;;;;;;;15.57;79.93;100151.16;4983221;28;20037;-84
2022/04/20 12:34:05;;;;;;;15.30;5.30;;;;;;;15.70;79.17;100154.69;4984754;28;20117;-85
2022/04/20 12:36:31;;;;;;;13.00;6.40;;;;;;;15.59;78.58;100141.91;4979220;28;20045;-85
2022/04/20 12:38:59;;;;;;;19.38;5.93;;;;;;;15.59;78.91;100149.94;4978906;28;20031;-87
2022/04/20 12:41:46;;;;;;;15.73;4.97;;;;;;;15.67;78.46;100141.75;4980718;28;20094;-81
2022/04/20 12:44:37;;;;;;;16.83;5.60;;;;;;;15.91;76.69;100135.75;4980373;28;20059;-84
2022/04/20 12:47:22;;;;;;;21.63;6.00;;;;;;;15.84;76.98;100145.63;4980892;28;20039;-86
2022/04/20 12:49:53;;;;;;;11.70;5.82;;;;;;;15.95;75.81;100131.66;4978343;28;20441;-85
2022/04/20 12:52:20;;;;;;;22.75;6.50;;;;;;;15.99;76.07;100126.72;4980042;28;20073;-84
2022/04/20 12:55:04;;;;;;;17.08;5.43;;;;;;;16.10;75.56;100125.28;4982015;28;20466;-86
2022/04/20 13:03:16;;;;;;;16.60;5.30;;;;;;;16.11;75.30;100141.09;4980087;28;20039;-84
2022/04/20 13:05:43;;;;;;;14.88;5.13;;;;;;;15.94;75.56;100148.72;4979004;28;20079;-84
2022/04/20 13:08:11;;;;;;;13.30;5.22;;;;;;;15.86;76.19;100127.56;4979999;28;20066;-85
2022/04/20 13:10:51;;;;;;;15.85;5.50;;;;;;;15.72;76.98;100133.09;4979002;28;20051;-84
2022/04/20 13:13:22;;;;;;;11.68;4.70;;;;;;;15.71;76.63;100155.50;4984746;28;20061;-85
2022/04/20 13:15:48;;;;;;;19.83;5.68;;;;;;;15.56;77.40;100157.53;4975489;28;20047;-83
2022/04/20 13:18:13;;;;;;;12.15;5.32;;;;;;;15.59;77.54;100163.28;4976213;28;20134;-85
2022/04/20 13:20:40;;;;;;;15.73;5.47;;;;;;;15.69;77.13;100168.22;4976794;28;20133;-81
2022/04/20 13:23:09;;;;;;;11.23;5.32;;;;;;;15.64;77.93;100160.84;4980704;28;20401;-84
2022/04/20 13:28:25;;;;;;;15.90;5.60;;;;;;;15.60;77.83;100150.75;4974436;28;20042;-85
2022/04/20 13:30:51;;;;;;;14.57;5.28;;;;;;;15.55;78.21;100150.53;4995228;28;20039;-84
2022/04/20 13:33:23;;;;;;;14.73;4.97;;;;;;;15.61;77.27;100150.53;4997235;28;20105;-85
2022/04/20 13:35:53;;;;;;;18.25;6.20;;;;;;;15.68;75.81;100124.66;5000177;28;20034;-86
2022/04/20 13:38:18;;;;;;;10.57;5.35;;;;;;;15.74;76.37;100113.16;5003040;28;20018;-82